Mesa Verde National Park, Colorado
Current Conditions -  °F | °C
As of 4:53 AM on Friday 19 Dec 2014 (Local Time) from KCEZ Reporting Station
Clear Clear  
Wind Chill:   Ceiling: Unl
Heat Index: 19°   Visibility: 10mi
Dew Point: 16°   Wind: 8mph
Humidity: 88%   Direction: 60°ENE
Pressure: 30.2"   Gusts: NA
Location:  37.1877°N, 108.492°W
Report Text: KCEZ 191153Z AUTO 06007KT 10SM CLR M07/M09 A3020 RMK AO2 SLP241 70004 T10721089 11044 21072 53006
Loading
Personal Weather Stations






























Interactive Weather Map New forecast layout! Learn more

10-Day Weather Forecast

Advertisements
Track Severe Weather on mobile